Time,TemperatureF,DewpointF,PressureIn,WindDirection,WindDirectionDegrees,WindSpeedMPH,WindSpeedGustMPH,Humidity,HourlyPrecipIn,Conditions,Clouds,dailyrainin,SoftwareType,DateUTC
2013-01-24 00:04:00,48.4,46.2,30.24,West,270,1.0,2.0,92,0.00,,,0.00,meteohub,2013-01-24 06:04:00,
2013-01-24 00:09:00,48.2,46.0,30.24,NW,315,1.0,2.0,92,0.00,,,0.00,meteohub,2013-01-24 06:09:00,
2013-01-24 00:14:00,48.4,46.4,30.23,NW,315,2.0,2.0,93,0.00,,,0.00,meteohub,2013-01-24 06:14:00,
2013-01-24 00:19:00,48.4,46.4,30.24,NW,315,2.0,2.0,93,0.00,,,0.00,meteohub,2013-01-24 06:19:00,
2013-01-24 00:24:00,48.0,46.4,30.23,West,270,2.0,2.0,94,0.00,,,0.00,meteohub,2013-01-24 06:24:00,
2013-01-24 00:29:00,48.0,46.4,30.23,West,270,0.0,2.0,94,0.00,,,0.00,meteohub,2013-01-24 06:29:00,
2013-01-24 00:34:00,48.2,46.2,30.23,West,270,2.0,2.0,93,0.00,,,0.00,meteohub,2013-01-24 06:34:00,
2013-01-24 00:39:00,48.4,46.8,30.23,NW,315,2.0,3.0,94,0.00,,,0.00,meteohub,2013-01-24 06:39:00,
2013-01-24 00:44:00,48.4,46.8,30.23,NW,315,2.0,3.0,94,0.00,,,0.00,meteohub,2013-01-24 06:44:00,
2013-01-24 00:49:00,48.6,46.9,30.23,NW,315,1.0,3.0,94,0.00,,,0.00,meteohub,2013-01-24 06:49:00,
2013-01-24 00:54:00,48.4,46.8,30.23,East,90,1.0,2.0,94,0.00,,,0.00,meteohub,2013-01-24 06:54:00,
2013-01-24 00:59:00,48.6,46.9,30.23,SW,225,1.0,2.0,94,0.00,,,0.00,meteohub,2013-01-24 06:59:00,
2013-01-24 01:04:00,48.6,46.9,30.23,NW,315,2.0,2.0,94,0.00,,,0.00,meteohub,2013-01-24 07:04:00,
2013-01-24 01:09:00,48.6,47.1,30.23,NW,315,1.0,2.0,95,0.00,,,0.00,meteohub,2013-01-24 07:09:00,
2013-01-24 01:14:00,48.6,47.1,30.23,South,180,2.0,2.0,95,0.00,,,0.00,meteohub,2013-01-24 07:14:00,
2013-01-24 01:19:00,48.4,46.9,30.23,SW,225,1.0,2.0,95,0.00,,,0.00,meteohub,2013-01-24 07:19:00,
2013-01-24 01:25:00,48.2,46.8,30.23,NW,315,0.0,3.0,95,0.00,,,0.00,meteohub,2013-01-24 07:25:00,
2013-01-24 01:30:00,48.0,46.9,30.23,West,270,1.0,3.0,96,0.00,,,0.00,meteohub,2013-01-24 07:30:00,
2013-01-24 01:35:00,47.7,46.6,30.23,NW,315,2.0,3.0,96,0.00,,,0.00,meteohub,2013-01-24 07:35:00,
2013-01-24 01:40:00,47.5,46.4,30.23,North,0,1.0,3.0,96,0.00,,,0.00,meteohub,2013-01-24 07:40:00,
2013-01-24 01:45:00,47.3,46.2,30.23,NW,315,0.0,3.0,96,0.00,,,0.00,meteohub,2013-01-24 07:45:00,
2013-01-24 01:50:00,47.5,46.4,30.23,NW,315,2.0,3.0,96,0.00,,,0.00,meteohub,2013-01-24 07:50:00,
2013-01-24 01:55:00,47.5,46.4,30.23,NW,315,1.0,4.0,96,0.00,,,0.00,meteohub,2013-01-24 07:55:00,
2013-01-24 02:00:00,47.5,46.4,30.23,SW,225,1.0,4.0,96,0.00,,,0.00,meteohub,2013-01-24 08:00:00,
2013-01-24 02:05:00,47.5,46.4,30.23,SW,225,1.0,4.0,96,0.00,,,0.00,meteohub,2013-01-24 08:05:00,
2013-01-24 02:10:00,47.1,46.0,30.23,NW,315,1.0,2.0,96,0.00,,,0.00,meteohub,2013-01-24 08:10:00,
2013-01-24 02:15:00,46.9,46.2,30.24,West,270,1.0,2.0,97,0.00,,,0.00,meteohub,2013-01-24 08:15:00,
2013-01-24 02:20:00,47.1,46.4,30.24,NW,315,1.0,2.0,97,0.00,,,0.00,meteohub,2013-01-24 08:20:00,
2013-01-24 02:25:00,47.3,46.6,30.24,West,270,2.0,2.0,97,0.00,,,0.00,meteohub,2013-01-24 08:25:00,
2013-01-24 02:30:00,47.5,46.8,30.24,East,90,1.0,2.0,97,0.00,,,0.00,meteohub,2013-01-24 08:30:00,
2013-01-24 02:36:00,47.3,46.6,30.24,NW,315,1.0,2.0,97,0.00,,,0.00,meteohub,2013-01-24 08:36:00,
2013-01-24 02:41:00,47.3,46.6,30.24,East,90,1.0,2.0,97,0.00,,,0.00,meteohub,2013-01-24 08:41:00,
2013-01-24 02:46:00,47.1,46.4,30.24,NW,315,2.0,2.0,97,0.00,,,0.00,meteohub,2013-01-24 08:46:00,
2013-01-24 02:51:00,46.8,46.0,30.24,East,90,1.0,2.0,97,0.00,,,0.00,meteohub,2013-01-24 08:51:00,
2013-01-24 02:56:00,46.8,46.0,30.24,East,90,0.0,2.0,97,0.00,,,0.00,meteohub,2013-01-24 08:56:00,
2013-01-24 03:01:00,46.6,45.9,30.24,East,90,2.0,2.0,97,0.00,,,0.00,meteohub,2013-01-24 09:01:00,
2013-01-24 03:06:00,46.6,45.9,30.23,NE,45,2.0,2.0,97,0.00,,,0.00,meteohub,2013-01-24 09:06:00,
2013-01-24 03:11:00,46.8,46.0,30.24,NE,45,0.0,2.0,97,0.00,,,0.00,meteohub,2013-01-24 09:11:00,
2013-01-24 03:16:00,46.6,45.9,30.23,SE,135,0.0,2.0,97,0.00,,,0.00,meteohub,2013-01-24 09:16:00,
2013-01-24 03:21:00,46.4,45.7,30.24,SE,135,0.0,2.0,97,0.00,,,0.00,meteohub,2013-01-24 09:21:00,
2013-01-24 03:26:00,46.0,45.3,30.23,NE,45,0.0,1.0,97,0.00,,,0.00,meteohub,2013-01-24 09:26:00,
2013-01-24 03:31:00,45.9,45.1,30.23,East,90,1.0,1.0,97,0.00,,,0.00,meteohub,2013-01-24 09:31:00,
2013-01-24 03:36:00,45.9,45.1,30.24,NE,45,0.0,2.0,97,0.00,,,0.00,meteohub,2013-01-24 09:36:00,
2013-01-24 03:41:00,45.7,45.0,30.23,NE,45,2.0,2.0,97,0.00,,,0.00,meteohub,2013-01-24 09:41:00,
2013-01-24 03:46:00,45.5,44.8,30.23,South,180,0.0,2.0,97,0.00,,,0.00,meteohub,2013-01-24 09:46:00,
2013-01-24 03:52:00,45.5,44.8,30.23,NE,45,0.0,2.0,97,0.00,,,0.00,meteohub,2013-01-24 09:52:00,
2013-01-24 03:57:00,45.5,44.8,30.23,NE,45,0.0,2.0,97,0.00,,,0.00,meteohub,2013-01-24 09:57:00,
2013-01-24 04:02:00,45.3,44.6,30.23,SE,135,0.0,0.0,97,0.00,,,0.00,meteohub,2013-01-24 10:02:00,
2013-01-24 04:07:00,45.0,44.2,30.23,NE,45,0.0,0.0,97,0.00,,,0.00,meteohub,2013-01-24 10:07:00,
2013-01-24 04:12:00,45.0,44.2,30.23,NE,45,0.0,0.0,97,0.00,,,0.00,meteohub,2013-01-24 10:12:00,
2013-01-24 04:17:00,45.0,44.2,30.23,South,180,0.0,0.0,97,0.00,,,0.00,meteohub,2013-01-24 10:17:00,
2013-01-24 04:22:00,44.8,44.1,30.23,South,180,0.0,0.0,97,0.00,,,0.00,meteohub,2013-01-24 10:22:00,
2013-01-24 04:27:00,44.6,43.9,30.23,South,180,0.0,0.0,97,0.00,,,0.00,meteohub,2013-01-24 10:27:00,
2013-01-24 04:32:00,44.6,43.9,30.23,East,90,0.0,0.0,97,0.00,,,0.00,meteohub,2013-01-24 10:32:00,
2013-01-24 04:37:00,44.2,43.7,30.23,East,90,0.0,0.0,98,0.00,,,0.00,meteohub,2013-01-24 10:37:00,
2013-01-24 04:42:00,44.2,43.7,30.23,SW,225,0.0,0.0,98,0.00,,,0.00,meteohub,2013-01-24 10:42:00,
2013-01-24 04:47:00,44.2,43.7,30.23,NW,315,0.0,2.0,98,0.00,,,0.00,meteohub,2013-01-24 10:47:00,
2013-01-24 04:52:00,44.1,43.5,30.23,NW,315,2.0,2.0,98,0.00,,,0.00,meteohub,2013-01-24 10:52:00,
2013-01-24 04:57:00,44.2,43.7,30.23,West,270,1.0,2.0,98,0.00,,,0.00,meteohub,2013-01-24 10:57:00,
2013-01-24 05:02:00,44.2,43.7,30.23,SE,135,1.0,2.0,98,0.00,,,0.00,meteohub,2013-01-24 11:02:00,
2013-01-24 05:07:00,44.2,43.7,30.24,SE,135,0.0,2.0,98,0.00,,,0.00,meteohub,2013-01-24 11:07:00,
2013-01-24 05:12:00,44.6,43.9,30.23,East,90,1.0,2.0,97,0.00,,,0.00,meteohub,2013-01-24 11:12:00,
2013-01-24 05:17:00,44.6,43.9,30.24,East,90,0.0,2.0,97,0.00,,,0.00,meteohub,2013-01-24 11:17:00,
2013-01-24 05:22:00,44.8,44.1,30.23,SE,135,0.0,2.0,97,0.00,,,0.00,meteohub,2013-01-24 11:22:00,
2013-01-24 05:27:00,44.8,44.1,30.24,East,90,2.0,2.0,97,0.00,,,0.00,meteohub,2013-01-24 11:27:00,
2013-01-24 05:32:00,44.8,44.1,30.24,NE,45,0.0,2.0,97,0.00,,,0.00,meteohub,2013-01-24 11:32:00,
2013-01-24 05:37:00,45.0,44.2,30.24,SE,135,2.0,2.0,97,0.00,,,0.00,meteohub,2013-01-24 11:37:00,
2013-01-24 05:42:00,44.8,44.1,30.24,ENE,68,2.0,2.0,97,0.00,,,0.00,meteohub,2013-01-24 11:42:00,
2013-01-24 05:47:00,44.6,43.9,30.24,North,0,1.0,2.0,97,0.00,,,0.00,meteohub,2013-01-24 11:47:00,
2013-01-24 05:52:00,44.2,43.7,30.24,NW,315,0.0,2.0,98,0.00,,,0.00,meteohub,2013-01-24 11:52:00,
2013-01-24 05:57:00,44.2,43.7,30.24,North,0,1.0,2.0,98,0.00,,,0.00,meteohub,2013-01-24 11:57:00,
2013-01-24 06:02:00,44.2,43.7,30.24,NE,45,0.0,1.0,98,0.00,,,0.00,meteohub,2013-01-24 12:02:00,
2013-01-24 06:07:00,44.2,43.7,30.24,East,90,1.0,1.0,98,0.00,,,0.00,meteohub,2013-01-24 12:07:00,
2013-01-24 06:12:00,44.1,43.5,30.24,East,90,2.0,2.0,98,0.00,,,0.00,meteohub,2013-01-24 12:12:00,
2013-01-24 06:17:00,44.1,43.5,30.24,East,90,0.0,2.0,98,0.00,,,0.00,meteohub,2013-01-24 12:17:00,
2013-01-24 06:22:00,44.1,43.5,30.24,East,90,0.0,2.0,98,0.00,,,0.00,meteohub,2013-01-24 12:22:00,
2013-01-24 06:27:00,44.2,43.7,30.24,WSW,248,0.0,2.0,98,0.00,,,0.00,meteohub,2013-01-24 12:27:00,
2013-01-24 06:32:00,45.1,44.4,30.24,North,0,1.0,1.0,97,0.00,,,0.00,meteohub,2013-01-24 12:32:00,
2013-01-24 06:37:00,45.7,45.0,30.24,North,0,0.0,2.0,97,0.00,,,0.00,meteohub,2013-01-24 12:37:00,
2013-01-24 06:42:00,46.2,45.5,30.24,NW,315,2.0,2.0,97,0.00,,,0.00,meteohub,2013-01-24 12:42:00,
2013-01-24 06:47:00,46.8,46.6,30.24,SW,225,2.0,2.0,99,0.00,,,0.00,meteohub,2013-01-24 12:47:00,
2013-01-24 06:52:00,47.3,47.1,30.25,SE,135,1.0,2.0,99,0.00,,,0.00,meteohub,2013-01-24 12:52:00,
2013-01-24 06:57:00,47.7,47.5,30.24,SE,135,0.0,2.0,99,0.00,,,0.00,meteohub,2013-01-24 12:57:00,
2013-01-24 07:02:00,48.0,47.8,30.25,West,270,1.0,2.0,99,0.00,,,0.00,meteohub,2013-01-24 13:02:00,
2013-01-24 07:07:00,48.6,48.4,30.25,ESE,113,2.0,2.0,99,0.00,,,0.00,meteohub,2013-01-24 13:07:00,
2013-01-24 07:12:00,49.1,48.9,30.25,SE,135,1.0,2.0,99,0.00,,,0.00,meteohub,2013-01-24 13:12:00,
2013-01-24 07:17:00,49.3,49.1,30.25,SW,225,0.0,2.0,99,0.00,,,0.00,meteohub,2013-01-24 13:17:00,
2013-01-24 07:22:00,49.8,49.5,30.25,SW,225,0.0,2.0,99,0.00,,,0.00,meteohub,2013-01-24 13:22:00,
2013-01-24 07:27:00,50.0,49.6,30.25,West,270,1.0,2.0,99,0.00,,,0.00,meteohub,2013-01-24 13:27:00,
2013-01-24 07:32:00,50.2,49.8,30.25,SE,135,0.0,1.0,99,0.00,,,0.00,meteohub,2013-01-24 13:32:00,
2013-01-24 07:37:00,50.5,50.2,30.25,SW,225,2.0,2.0,99,0.00,,,0.00,meteohub,2013-01-24 13:37:00,
2013-01-24 07:42:00,50.9,50.5,30.25,NW,315,2.0,2.0,99,0.00,,,0.00,meteohub,2013-01-24 13:42:00,
2013-01-24 07:47:00,51.4,51.1,30.25,NE,45,2.0,2.0,99,0.00,,,0.00,meteohub,2013-01-24 13:47:00,
2013-01-24 07:52:00,51.8,51.3,30.25,NE,45,1.0,2.0,98,0.00,,,0.00,meteohub,2013-01-24 13:52:00,
2013-01-24 07:57:00,52.2,51.6,30.25,SE,135,1.0,2.0,98,0.00,,,0.00,meteohub,2013-01-24 13:57:00,
2013-01-24 08:02:00,52.3,51.8,30.25,SW,225,0.0,2.0,98,0.00,,,0.00,meteohub,2013-01-24 14:02:00,
2013-01-24 08:07:00,52.3,51.8,30.25,SW,225,0.0,2.0,98,0.00,,,0.00,meteohub,2013-01-24 14:07:00,
2013-01-24 08:12:00,54.0,53.1,30.25,West,270,0.0,2.0,97,0.00,,,0.00,meteohub,2013-01-24 14:12:00,
2013-01-24 08:17:00,54.3,53.4,30.25,West,270,0.0,2.0,97,0.00,,,0.00,meteohub,2013-01-24 14:17:00,
2013-01-24 08:22:00,55.2,54.3,30.25,West,270,0.0,2.0,97,0.00,,,0.00,meteohub,2013-01-24 14:22:00,
2013-01-24 08:27:00,55.6,55.2,30.25,West,270,0.0,0.0,99,0.00,,,0.00,meteohub,2013-01-24 14:27:00,
2013-01-24 08:32:00,56.3,55.9,30.26,West,270,0.0,0.0,99,0.00,,,0.00,meteohub,2013-01-24 14:32:00,
2013-01-24 08:37:00,57.6,57.0,30.26,West,270,0.0,0.0,98,0.00,,,0.00,meteohub,2013-01-24 14:37:00,
2013-01-24 08:42:00,58.8,58.5,30.26,West,270,0.0,0.0,99,0.00,,,0.00,meteohub,2013-01-24 14:42:00,
2013-01-24 08:47:00,60.1,59.5,30.26,SW,225,1.0,0.0,98,0.00,,,0.00,meteohub,2013-01-24 14:47:00,
2013-01-24 08:52:00,61.0,59.9,30.26,SW,225,1.0,2.0,96,0.00,,,0.00,meteohub,2013-01-24 14:52:00,
2013-01-24 08:57:00,61.7,60.6,30.26,SW,225,2.0,2.0,96,0.00,,,0.00,meteohub,2013-01-24 14:57:00,
2013-01-24 09:02:00,62.8,61.0,30.26,East,90,2.0,2.0,94,0.00,,,0.00,meteohub,2013-01-24 15:02:00,
2013-01-24 09:07:00,64.6,62.2,30.26,East,90,2.0,3.0,92,0.00,,,0.00,meteohub,2013-01-24 15:07:00,
2013-01-24 09:13:00,66.0,62.4,30.26,NE,45,2.0,3.0,88,0.00,,,0.00,meteohub,2013-01-24 15:13:00,
2013-01-24 09:18:00,68.4,63.0,30.27,East,90,4.0,4.0,83,0.00,,,0.00,meteohub,2013-01-24 15:18:00,
2013-01-24 09:23:00,69.1,62.2,30.27,NW,315,4.0,5.0,79,0.00,,,0.00,meteohub,2013-01-24 15:23:00,
2013-01-24 09:28:00,69.1,61.9,30.27,East,90,2.0,5.0,78,0.00,,,0.00,meteohub,2013-01-24 15:28:00,
2013-01-24 09:33:00,70.3,61.7,30.27,West,270,4.0,5.0,74,0.00,,,0.00,meteohub,2013-01-24 15:33:00,
2013-01-24 09:38:00,71.6,61.3,30.26,ESE,113,4.0,5.0,70,0.00,,,0.00,meteohub,2013-01-24 15:38:00,
2013-01-24 09:43:00,71.6,60.8,30.27,NE,45,8.0,8.0,69,0.00,,,0.00,meteohub,2013-01-24 15:43:00,
2013-01-24 09:48:00,69.8,60.8,30.26,NE,45,6.0,7.0,73,0.00,,,0.00,meteohub,2013-01-24 15:48:00,
2013-01-24 09:53:00,68.5,60.6,30.27,SE,135,5.0,8.0,76,0.00,,,0.00,meteohub,2013-01-24 15:53:00,
2013-01-24 09:58:00,69.6,61.3,30.27,East,90,7.0,8.0,75,0.00,,,0.00,meteohub,2013-01-24 15:58:00,
2013-01-24 10:03:00,69.8,61.2,30.26,ESE,113,5.0,8.0,74,0.00,,,0.00,meteohub,2013-01-24 16:03:00,
2013-01-24 10:08:00,70.9,61.3,30.26,SE,135,6.0,9.0,72,0.00,,,0.00,meteohub,2013-01-24 16:08:00,
2013-01-24 10:13:00,72.9,62.4,30.26,East,90,5.0,9.0,70,0.00,,,0.00,meteohub,2013-01-24 16:13:00,
2013-01-24 10:18:00,73.8,62.1,30.27,East,90,4.0,7.0,67,0.00,,,0.00,meteohub,2013-01-24 16:18:00,
2013-01-24 10:23:00,74.5,62.4,30.26,SE,135,8.0,8.0,66,0.00,,,0.00,meteohub,2013-01-24 16:23:00,
2013-01-24 10:28:00,74.8,62.2,30.26,East,90,4.0,8.0,65,0.00,,,0.00,meteohub,2013-01-24 16:28:00,
2013-01-24 10:33:00,75.6,62.1,30.26,East,90,5.0,8.0,63,0.00,,,0.00,meteohub,2013-01-24 16:33:00,
2013-01-24 10:38:00,74.1,61.5,30.26,NE,45,4.0,8.0,65,0.00,,,0.00,meteohub,2013-01-24 16:38:00,
2013-01-24 10:43:00,74.5,61.9,30.26,South,180,3.0,8.0,65,0.00,,,0.00,meteohub,2013-01-24 16:43:00,
2013-01-24 10:49:00,75.9,61.9,30.26,ENE,68,6.0,8.0,62,0.00,,,0.00,meteohub,2013-01-24 16:49:00,
2013-01-24 10:54:00,75.9,61.5,30.25,ENE,68,5.0,8.0,61,0.00,,,0.00,meteohub,2013-01-24 16:54:00,
2013-01-24 10:59:00,76.3,61.3,30.25,East,90,5.0,6.0,60,0.00,,,0.00,meteohub,2013-01-24 16:59:00,
2013-01-24 11:04:00,77.0,61.5,30.25,SW,225,6.0,6.0,59,0.00,,,0.00,meteohub,2013-01-24 17:04:00,
2013-01-24 11:09:00,77.5,61.2,30.25,SE,135,6.0,7.0,57,0.00,,,0.00,meteohub,2013-01-24 17:09:00,
2013-01-24 11:14:00,78.1,61.5,30.25,SW,225,4.0,8.0,57,0.00,,,0.00,meteohub,2013-01-24 17:14:00,
2013-01-24 11:19:00,79.0,61.0,30.25,East,90,8.0,8.0,54,0.00,,,0.00,meteohub,2013-01-24 17:19:00,
2013-01-24 11:24:00,77.9,60.4,30.25,NW,315,5.0,8.0,55,0.00,,,0.00,meteohub,2013-01-24 17:24:00,
2013-01-24 11:29:00,77.7,60.3,30.25,SE,135,6.0,9.0,55,0.00,,,0.00,meteohub,2013-01-24 17:29:00,
2013-01-24 11:34:00,77.4,59.9,30.25,South,180,4.0,9.0,55,0.00,,,0.00,meteohub,2013-01-24 17:34:00,
2013-01-24 11:39:00,77.9,60.4,30.24,SE,135,8.0,9.0,55,0.00,,,0.00,meteohub,2013-01-24 17:39:00,
2013-01-24 11:44:00,78.8,60.3,30.24,SE,135,4.0,9.0,53,0.00,,,0.00,meteohub,2013-01-24 17:44:00,
2013-01-24 11:49:00,79.7,60.4,30.24,NNE,23,6.0,9.0,52,0.00,,,0.00,meteohub,2013-01-24 17:49:00,
2013-01-24 11:54:00,79.7,60.4,30.23,NE,45,6.0,8.0,52,0.00,,,0.00,meteohub,2013-01-24 17:54:00,
2013-01-24 11:59:00,78.6,60.1,30.23,SE,135,6.0,9.0,53,0.00,,,0.00,meteohub,2013-01-24 17:59:00,
2013-01-24 12:04:00,78.3,60.3,30.23,East,90,10.0,11.0,54,0.00,,,0.00,meteohub,2013-01-24 18:04:00,
2013-01-24 12:09:00,78.1,59.5,30.22,East,90,4.0,11.0,53,0.00,,,0.00,meteohub,2013-01-24 18:09:00,
2013-01-24 12:14:00,78.8,59.7,30.22,NE,45,4.0,11.0,52,0.00,,,0.00,meteohub,2013-01-24 18:14:00,
2013-01-24 12:20:00,80.4,60.6,30.22,NE,45,2.0,10.0,51,0.00,,,0.00,meteohub,2013-01-24 18:20:00,
2013-01-24 12:25:00,82.4,60.1,30.21,SE,135,9.0,9.0,47,0.00,,,0.00,meteohub,2013-01-24 18:25:00,
2013-01-24 12:30:00,81.7,58.8,30.21,North,0,4.0,9.0,46,0.00,,,0.00,meteohub,2013-01-24 18:30:00,
2013-01-24 12:35:00,81.3,59.2,30.21,ESE,113,8.0,9.0,47,0.00,,,0.00,meteohub,2013-01-24 18:35:00,
2013-01-24 12:40:00,80.4,59.0,30.21,East,90,6.0,9.0,48,0.00,,,0.00,meteohub,2013-01-24 18:40:00,
2013-01-24 12:45:00,81.5,59.9,30.20,NE,45,8.0,10.0,48,0.00,,,0.00,meteohub,2013-01-24 18:45:00,
2013-01-24 12:50:00,82.2,59.9,30.20,North,0,5.0,10.0,47,0.00,,,0.00,meteohub,2013-01-24 18:50:00,
2013-01-24 12:55:00,82.8,59.9,30.19,East,90,7.0,10.0,46,0.00,,,0.00,meteohub,2013-01-24 18:55:00,
2013-01-24 13:00:00,83.7,60.6,30.19,East,90,2.0,8.0,46,0.00,,,0.00,meteohub,2013-01-24 19:00:00,
2013-01-24 13:05:00,84.2,59.9,30.19,East,90,7.0,9.0,44,0.00,,,0.00,meteohub,2013-01-24 19:05:00,
2013-01-24 13:10:00,83.8,60.3,30.19,East,90,9.0,9.0,45,0.00,,,0.00,meteohub,2013-01-24 19:10:00,
2013-01-24 13:15:00,83.8,60.3,30.19,East,90,8.0,9.0,45,0.00,,,0.00,meteohub,2013-01-24 19:15:00,
2013-01-24 13:20:00,84.9,60.6,30.18,East,90,8.0,9.0,44,0.00,,,0.00,meteohub,2013-01-24 19:20:00,
2013-01-24 13:25:00,84.2,59.9,30.18,SE,135,8.0,9.0,44,0.00,,,0.00,meteohub,2013-01-24 19:25:00,
2013-01-24 13:30:00,84.6,60.3,30.17,East,90,5.0,9.0,44,0.00,,,0.00,meteohub,2013-01-24 19:30:00,
2013-01-24 13:36:00,85.1,60.1,30.17,SE,135,6.0,9.0,43,0.00,,,0.00,meteohub,2013-01-24 19:36:00,
2013-01-24 13:41:00,84.6,59.0,30.17,SW,225,4.0,8.0,42,0.00,,,0.00,meteohub,2013-01-24 19:41:00,
2013-01-24 13:46:00,83.8,60.3,30.16,SE,135,5.0,11.0,45,0.00,,,0.00,meteohub,2013-01-24 19:46:00,
2013-01-24 13:51:00,84.6,59.5,30.16,South,180,4.0,11.0,43,0.00,,,0.00,meteohub,2013-01-24 19:51:00,
2013-01-24 13:56:00,85.6,59.9,30.16,East,90,7.0,11.0,42,0.00,,,0.00,meteohub,2013-01-24 19:56:00,
2013-01-24 14:01:00,85.3,61.0,30.15,ENE,68,9.0,10.0,44,0.00,,,0.00,meteohub,2013-01-24 20:01:00,
2013-01-24 14:06:00,85.3,59.5,30.15,East,90,10.0,11.0,42,0.00,,,0.00,meteohub,2013-01-24 20:06:00,
2013-01-24 14:11:00,84.6,59.5,30.15,East,90,5.0,11.0,43,0.00,,,0.00,meteohub,2013-01-24 20:11:00,
2013-01-24 14:16:00,85.8,58.6,30.15,SE,135,13.0,13.0,40,0.00,,,0.00,meteohub,2013-01-24 20:16:00,
2013-01-24 14:21:00,85.1,58.8,30.15,NE,45,9.0,13.0,41,0.00,,,0.00,meteohub,2013-01-24 20:21:00,
2013-01-24 14:26:00,85.3,59.0,30.14,East,90,4.0,13.0,41,0.00,,,0.00,meteohub,2013-01-24 20:26:00,
2013-01-24 14:31:00,85.6,59.9,30.14,SE,135,8.0,13.0,42,0.00,,,0.00,meteohub,2013-01-24 20:31:00,
2013-01-24 14:36:00,85.8,60.8,30.14,East,90,7.0,12.0,43,0.00,,,0.00,meteohub,2013-01-24 20:36:00,
2013-01-24 14:42:00,86.4,60.6,30.14,NE,45,4.0,8.0,42,0.00,,,0.00,meteohub,2013-01-24 20:42:00,
2013-01-24 14:47:00,86.5,57.9,30.14,SE,135,10.0,10.0,38,0.00,,,0.00,meteohub,2013-01-24 20:47:00,
2013-01-24 14:52:00,86.4,59.2,30.14,SE,135,5.0,10.0,40,0.00,,,0.00,meteohub,2013-01-24 20:52:00,
2013-01-24 14:57:00,85.8,60.8,30.14,East,90,9.0,10.0,43,0.00,,,0.00,meteohub,2013-01-24 20:57:00,
2013-01-24 15:02:00,85.1,59.4,30.14,SE,135,5.0,14.0,42,0.00,,,0.00,meteohub,2013-01-24 21:02:00,
2013-01-24 15:07:00,85.1,60.1,30.13,East,90,9.0,14.0,43,0.00,,,0.00,meteohub,2013-01-24 21:07:00,
2013-01-24 15:12:00,85.6,58.5,30.13,SE,135,8.0,10.0,40,0.00,,,0.00,meteohub,2013-01-24 21:12:00,
2013-01-24 15:17:00,85.6,59.2,30.14,SSE,158,6.0,9.0,41,0.00,,,0.00,meteohub,2013-01-24 21:17:00,
2013-01-24 15:22:00,85.3,60.3,30.13,East,90,6.0,11.0,43,0.00,,,0.00,meteohub,2013-01-24 21:22:00,
2013-01-24 15:27:00,85.3,60.3,30.13,East,90,7.0,11.0,43,0.00,,,0.00,meteohub,2013-01-24 21:27:00,
2013-01-24 15:32:00,84.4,60.1,30.13,East,90,7.0,11.0,44,0.00,,,0.00,meteohub,2013-01-24 21:32:00,
2013-01-24 15:37:00,84.4,60.1,30.13,East,90,5.0,11.0,44,0.00,,,0.00,meteohub,2013-01-24 21:37:00,
2013-01-24 15:42:00,84.6,60.3,30.13,East,90,9.0,11.0,44,0.00,,,0.00,meteohub,2013-01-24 21:42:00,
2013-01-24 15:47:00,85.1,60.1,30.13,East,90,9.0,11.0,43,0.00,,,0.00,meteohub,2013-01-24 21:47:00,
2013-01-24 15:57:00,84.2,59.4,30.13,East,90,11.0,11.0,43,0.00,,,0.00,meteohub,2013-01-24 21:57:00,
2013-01-24 16:02:00,83.7,59.4,30.13,East,90,8.0,11.0,44,0.00,,,0.00,meteohub,2013-01-24 22:02:00,
2013-01-24 16:07:00,84.2,59.9,30.13,NE,45,5.0,11.0,44,0.00,,,0.00,meteohub,2013-01-24 22:07:00,
2013-01-24 16:12:00,84.4,58.8,30.13,South,180,8.0,11.0,42,0.00,,,0.00,meteohub,2013-01-24 22:12:00,
2013-01-24 16:17:00,83.7,60.1,30.13,SE,135,5.0,10.0,45,0.00,,,0.00,meteohub,2013-01-24 22:17:00,
2013-01-24 16:22:00,84.0,60.4,30.13,SE,135,6.0,11.0,45,0.00,,,0.00,meteohub,2013-01-24 22:22:00,
2013-01-24 16:27:00,84.0,60.4,30.13,East,90,8.0,11.0,45,0.00,,,0.00,meteohub,2013-01-24 22:27:00,
2013-01-24 16:32:00,83.7,60.1,30.13,East,90,5.0,9.0,45,0.00,,,0.00,meteohub,2013-01-24 22:32:00,
2013-01-24 16:37:00,83.5,59.9,30.12,East,90,6.0,11.0,45,0.00,,,0.00,meteohub,2013-01-24 22:37:00,
2013-01-24 16:42:00,83.8,59.5,30.12,East,90,11.0,11.0,44,0.00,,,0.00,meteohub,2013-01-24 22:42:00,
2013-01-24 16:47:00,83.7,59.4,30.12,East,90,4.0,11.0,44,0.00,,,0.00,meteohub,2013-01-24 22:47:00,
2013-01-24 16:52:00,83.7,59.4,30.13,East,90,4.0,11.0,44,0.00,,,0.00,meteohub,2013-01-24 22:52:00,
2013-01-24 16:57:00,82.9,58.1,30.12,East,90,7.0,11.0,43,0.00,,,0.00,meteohub,2013-01-24 22:57:00,
2013-01-24 17:02:00,82.4,57.7,30.12,East,90,11.0,11.0,43,0.00,,,0.00,meteohub,2013-01-24 23:02:00,
2013-01-24 17:07:00,81.1,55.9,30.12,East,90,9.0,11.0,42,0.00,,,0.00,meteohub,2013-01-24 23:07:00,
2013-01-24 17:12:00,79.9,55.9,30.12,NE,45,8.0,11.0,44,0.00,,,0.00,meteohub,2013-01-24 23:12:00,
2013-01-24 17:17:00,79.2,56.7,30.12,East,90,10.0,11.0,46,0.00,,,0.00,meteohub,2013-01-24 23:17:00,
2013-01-24 17:22:00,78.6,56.7,30.12,East,90,7.0,11.0,47,0.00,,,0.00,meteohub,2013-01-24 23:22:00,
2013-01-24 17:27:00,78.4,56.5,30.12,East,90,6.0,12.0,47,0.00,,,0.00,meteohub,2013-01-24 23:27:00,
2013-01-24 17:32:00,77.7,56.5,30.12,East,90,11.0,12.0,48,0.00,,,0.00,meteohub,2013-01-24 23:32:00,
2013-01-24 17:37:00,77.0,55.8,30.12,East,90,11.0,11.0,48,0.00,,,0.00,meteohub,2013-01-24 23:37:00,
2013-01-24 17:42:00,76.3,56.3,30.12,East,90,6.0,14.0,50,0.00,,,0.00,meteohub,2013-01-24 23:42:00,
2013-01-24 17:47:00,75.7,56.3,30.12,SE,135,5.0,14.0,51,0.00,,,0.00,meteohub,2013-01-24 23:47:00,
2013-01-24 17:52:00,75.2,56.8,30.12,NE,45,5.0,14.0,53,0.00,,,0.00,meteohub,2013-01-24 23:52:00,
2013-01-24 17:57:00,74.3,57.0,30.12,East,90,8.0,9.0,55,0.00,,,0.00,meteohub,2013-01-24 23:57:00,
2013-01-24 18:02:00,73.6,56.8,30.12,NE,45,7.0,9.0,56,0.00,,,0.00,meteohub,2013-01-25 00:02:00,
2013-01-24 18:07:00,73.0,57.4,30.12,East,90,6.0,9.0,58,0.00,,,0.00,meteohub,2013-01-25 00:07:00,
2013-01-24 18:12:00,72.7,57.0,30.12,East,90,8.0,10.0,58,0.00,,,0.00,meteohub,2013-01-25 00:12:00,
2013-01-24 18:17:00,72.5,57.4,30.13,ENE,68,4.0,10.0,59,0.00,,,0.00,meteohub,2013-01-25 00:17:00,
2013-01-24 18:22:00,72.1,57.6,30.12,East,90,6.0,10.0,60,0.00,,,0.00,meteohub,2013-01-25 00:22:00,
2013-01-24 18:27:00,71.8,57.6,30.12,East,90,7.0,10.0,61,0.00,,,0.00,meteohub,2013-01-25 00:27:00,
2013-01-24 18:32:00,71.4,58.1,30.12,East,90,8.0,9.0,63,0.00,,,0.00,meteohub,2013-01-25 00:32:00,
2013-01-24 18:37:00,71.1,57.7,30.12,East,90,8.0,9.0,63,0.00,,,0.00,meteohub,2013-01-25 00:37:00,
2013-01-24 18:43:00,70.9,58.1,30.12,East,90,7.0,9.0,64,0.00,,,0.00,meteohub,2013-01-25 00:43:00,
2013-01-24 18:48:00,70.9,58.1,30.13,East,90,8.0,8.0,64,0.00,,,0.00,meteohub,2013-01-25 00:48:00,
2013-01-24 18:53:00,70.7,57.9,30.13,East,90,5.0,9.0,64,0.00,,,0.00,meteohub,2013-01-25 00:53:00,
2013-01-24 18:58:00,70.3,58.1,30.13,East,90,6.0,9.0,65,0.00,,,0.00,meteohub,2013-01-25 00:58:00,
2013-01-24 19:03:00,70.0,57.7,30.13,East,90,4.0,8.0,65,0.00,,,0.00,meteohub,2013-01-25 01:03:00,
2013-01-24 19:08:00,69.8,57.9,30.13,East,90,4.0,8.0,66,0.00,,,0.00,meteohub,2013-01-25 01:08:00,
2013-01-24 19:13:00,69.4,58.5,30.14,ESE,113,4.0,7.0,68,0.00,,,0.00,meteohub,2013-01-25 01:13:00,
2013-01-24 19:18:00,69.3,58.3,30.13,East,90,6.0,7.0,68,0.00,,,0.00,meteohub,2013-01-25 01:18:00,
2013-01-24 19:23:00,69.4,58.8,30.14,East,90,6.0,7.0,69,0.00,,,0.00,meteohub,2013-01-25 01:23:00,
2013-01-24 19:28:00,69.1,58.5,30.14,East,90,5.0,8.0,69,0.00,,,0.00,meteohub,2013-01-25 01:28:00,
2013-01-24 19:33:00,69.1,58.8,30.14,SE,135,5.0,8.0,70,0.00,,,0.00,meteohub,2013-01-25 01:33:00,
2013-01-24 19:38:00,68.9,58.6,30.14,SE,135,7.0,8.0,70,0.00,,,0.00,meteohub,2013-01-25 01:38:00,
2013-01-24 19:43:00,68.7,58.5,30.14,SE,135,4.0,7.0,70,0.00,,,0.00,meteohub,2013-01-25 01:43:00,
2013-01-24 19:48:00,68.5,58.8,30.14,East,90,4.0,7.0,71,0.00,,,0.00,meteohub,2013-01-25 01:48:00,
2013-01-24 19:53:00,68.5,59.2,30.14,SE,135,6.0,7.0,72,0.00,,,0.00,meteohub,2013-01-25 01:53:00,
2013-01-24 19:58:00,68.5,59.2,30.14,East,90,5.0,7.0,72,0.00,,,0.00,meteohub,2013-01-25 01:58:00,
2013-01-24 20:04:00,68.5,59.2,30.14,SE,135,6.0,8.0,72,0.00,,,0.00,meteohub,2013-01-25 02:04:00,
2013-01-24 20:09:00,68.5,59.2,30.14,SE,135,4.0,8.0,72,0.00,,,0.00,meteohub,2013-01-25 02:09:00,
2013-01-24 20:14:00,68.4,59.0,30.15,ENE,68,5.0,8.0,72,0.00,,,0.00,meteohub,2013-01-25 02:14:00,
2013-01-24 20:19:00,68.4,59.0,30.15,NNE,23,4.0,7.0,72,0.00,,,0.00,meteohub,2013-01-25 02:19:00,
2013-01-24 20:24:00,68.4,59.4,30.15,East,90,5.0,7.0,73,0.00,,,0.00,meteohub,2013-01-25 02:24:00,
2013-01-24 20:29:00,68.2,59.2,30.15,East,90,4.0,7.0,73,0.00,,,0.00,meteohub,2013-01-25 02:29:00,
2013-01-24 20:34:00,68.0,59.0,30.15,East,90,8.0,8.0,73,0.00,,,0.00,meteohub,2013-01-25 02:34:00,
2013-01-24 20:39:00,67.8,59.2,30.15,East,90,4.0,7.0,74,0.00,,,0.00,meteohub,2013-01-25 02:39:00,
2013-01-24 20:44:00,67.6,59.0,30.15,East,90,5.0,8.0,74,0.00,,,0.00,meteohub,2013-01-25 02:44:00,
2013-01-24 20:49:00,67.6,59.0,30.15,SE,135,4.0,8.0,74,0.00,,,0.00,meteohub,2013-01-25 02:49:00,
2013-01-24 20:54:00,67.5,58.8,30.15,East,90,6.0,7.0,74,0.00,,,0.00,meteohub,2013-01-25 02:54:00,
2013-01-24 21:00:00,67.5,58.8,30.14,East,90,5.0,7.0,74,0.00,,,0.00,meteohub,2013-01-25 03:00:00,
2013-01-24 21:05:00,67.5,59.2,30.15,East,90,4.0,7.0,75,0.00,,,0.00,meteohub,2013-01-25 03:05:00,
2013-01-24 21:10:00,67.3,59.0,30.15,SE,135,4.0,7.0,75,0.00,,,0.00,meteohub,2013-01-25 03:10:00,
2013-01-24 21:15:00,67.3,59.0,30.14,ESE,113,4.0,7.0,75,0.00,,,0.00,meteohub,2013-01-25 03:15:00,
2013-01-24 21:20:00,67.3,59.0,30.15,SE,135,4.0,6.0,75,0.00,,,0.00,meteohub,2013-01-25 03:20:00,
2013-01-24 21:25:00,67.1,58.8,30.15,East,90,4.0,6.0,75,0.00,,,0.00,meteohub,2013-01-25 03:25:00,
2013-01-24 21:30:00,67.3,59.5,30.15,ENE,68,4.0,6.0,76,0.00,,,0.00,meteohub,2013-01-25 03:30:00,
2013-01-24 21:35:00,67.5,59.5,30.15,North,0,4.0,6.0,76,0.00,,,0.00,meteohub,2013-01-25 03:35:00,
2013-01-24 21:40:00,67.6,59.4,30.15,East,90,7.0,8.0,75,0.00,,,0.00,meteohub,2013-01-25 03:40:00,
2013-01-24 21:45:00,67.8,59.5,30.15,ESE,113,5.0,8.0,75,0.00,,,0.00,meteohub,2013-01-25 03:45:00,
2013-01-24 21:50:00,68.0,59.4,30.15,East,90,8.0,8.0,74,0.00,,,0.00,meteohub,2013-01-25 03:50:00,
2013-01-24 21:55:00,68.2,59.5,30.15,ENE,68,8.0,8.0,74,0.00,,,0.00,meteohub,2013-01-25 03:55:00,
2013-01-24 22:00:00,68.4,59.4,30.15,NE,45,7.0,9.0,73,0.00,,,0.00,meteohub,2013-01-25 04:00:00,
2013-01-24 22:05:00,68.2,59.2,30.15,SE,135,8.0,9.0,73,0.00,,,0.00,meteohub,2013-01-25 04:05:00,
2013-01-24 22:10:00,68.2,59.2,30.15,East,90,5.0,8.0,73,0.00,,,0.00,meteohub,2013-01-25 04:10:00,
2013-01-24 22:15:00,67.8,59.2,30.14,SE,135,4.0,8.0,74,0.00,,,0.00,meteohub,2013-01-25 04:15:00,
2013-01-24 22:20:00,67.5,59.2,30.14,East,90,2.0,8.0,75,0.00,,,0.00,meteohub,2013-01-25 04:20:00,
2013-01-24 22:25:00,67.1,58.8,30.15,South,180,4.0,5.0,75,0.00,,,0.00,meteohub,2013-01-25 04:25:00,
2013-01-24 22:30:00,66.9,58.8,30.14,East,90,4.0,4.0,75,0.00,,,0.00,meteohub,2013-01-25 04:30:00,
2013-01-24 22:35:00,67.1,58.8,30.14,East,90,4.0,6.0,75,0.00,,,0.00,meteohub,2013-01-25 04:35:00,
2013-01-24 22:40:00,67.5,58.8,30.14,WSW,248,6.0,9.0,74,0.00,,,0.00,meteohub,2013-01-25 04:40:00,
2013-01-24 22:45:00,68.2,58.8,30.15,ESE,113,8.0,11.0,72,0.00,,,0.00,meteohub,2013-01-25 04:45:00,
2013-01-24 22:50:00,68.0,58.6,30.14,SE,135,8.0,11.0,72,0.00,,,0.00,meteohub,2013-01-25 04:50:00,
2013-01-24 22:55:00,67.8,58.8,30.14,ESE,113,10.0,11.0,73,0.00,,,0.00,meteohub,2013-01-25 04:55:00,
2013-01-24 23:00:00,67.6,58.6,30.14,East,90,10.0,11.0,73,0.00,,,0.00,meteohub,2013-01-25 05:00:00,
2013-01-24 23:02:00,67.6,58.6,30.14,SE,135,9.0,11.0,73,0.00,,,0.00,meteohub,2013-01-25 05:02:00,
2013-01-24 23:03:00,67.6,58.6,30.14,SE,135,9.0,11.0,73,0.00,,,0.00,meteohub,2013-01-25 05:03:00,
2013-01-24 23:04:00,67.6,58.6,30.14,ENE,68,8.0,11.0,73,0.00,,,0.00,meteohub,2013-01-25 05:04:00,
2013-01-24 23:09:00,67.3,58.6,30.15,SE,135,8.0,11.0,74,0.00,,,0.00,meteohub,2013-01-25 05:09:00,
2013-01-24 23:14:00,66.9,58.3,30.14,NE,45,8.0,11.0,74,0.00,,,0.00,meteohub,2013-01-25 05:14:00,
2013-01-24 23:19:00,66.4,57.9,30.15,East,90,6.0,11.0,74,0.00,,,0.00,meteohub,2013-01-25 05:19:00,
2013-01-24 23:24:00,65.8,58.1,30.15,East,90,5.0,11.0,76,0.00,,,0.00,meteohub,2013-01-25 05:24:00,
2013-01-24 23:29:00,65.7,57.9,30.14,East,90,7.0,9.0,76,0.00,,,0.00,meteohub,2013-01-25 05:29:00,
2013-01-24 23:34:00,65.5,58.1,30.14,East,90,5.0,9.0,77,0.00,,,0.00,meteohub,2013-01-25 05:34:00,
2013-01-24 23:39:00,65.7,58.6,30.14,SE,135,10.0,10.0,78,0.00,,,0.00,meteohub,2013-01-25 05:39:00,
2013-01-24 23:44:00,65.8,58.8,30.14,ESE,113,9.0,13.0,78,0.00,,,0.00,meteohub,2013-01-25 05:44:00,
2013-01-24 23:49:00,65.7,59.0,30.13,NE,45,12.0,13.0,79,0.00,,,0.00,meteohub,2013-01-25 05:49:00,
2013-01-24 23:54:00,65.7,59.0,30.14,East,90,13.0,15.0,79,0.00,,,0.00,meteohub,2013-01-25 05:54:00,
2013-01-24 23:59:00,65.5,59.2,30.13,SE,135,12.0,15.0,80,0.00,,,0.00,meteohub,2013-01-25 05:59:00,